Time;durP1;ratioP1;P1;durP2;ratioP2;P2;SDS_P1;SDS_P2;PMS_P1;PMS_P2;Temp;Humidity;BMP_temperature;BMP_pressure;BME280_temperature;BME280_humidity;BME280_pressure;Samples;Min_cycle;Max_cycle;Signal;HPM_P1;HPM_P2
2021/04/20 00:00:52;;;;;;;33.07;22.70;;;9.90;81.70;;;;;;5055711;28;20036;-73
2021/04/20 00:03:17;;;;;;;34.07;23.20;;;9.90;81.70;;;;;;5073188;28;20037;-72
2021/04/20 00:05:43;;;;;;;35.80;23.60;;;10.00;81.80;;;;;;5073412;28;20066;-72
2021/04/20 00:08:09;;;;;;;35.77;23.67;;;9.90;81.80;;;;;;5055535;28;20028;-73
2021/04/20 00:10:35;;;;;;;34.63;23.63;;;9.80;81.80;;;;;;5055628;28;20590;-73
2021/04/20 00:13:02;;;;;;;35.43;23.63;;;9.80;81.80;;;;;;5045610;28;20051;-78
2021/04/20 00:15:30;;;;;;;36.77;22.77;;;9.80;81.80;;;;;;5042492;28;20116;-78
2021/04/20 00:18:03;;;;;;;35.43;23.80;;;9.80;81.90;;;;;;5055916;28;20499;-77
2021/04/20 00:20:28;;;;;;;37.30;25.67;;;9.70;82.00;;;;;;5074615;28;20028;-78
2021/04/20 00:22:54;;;;;;;35.83;24.27;;;9.70;82.00;;;;;;5042457;28;20027;-78
2021/04/20 00:25:21;;;;;;;33.83;23.40;;;9.70;82.10;;;;;;5053563;28;20407;-78
2021/04/20 00:27:47;;;;;;;34.10;23.50;;;9.70;82.20;;;;;;5039499;28;20021;-78
2021/04/20 00:30:13;;;;;;;34.47;24.33;;;9.60;82.10;;;;;;5038901;28;20031;-78
2021/04/20 00:32:39;;;;;;;37.37;24.70;;;9.60;82.20;;;;;;5056839;28;20028;-78
2021/04/20 00:35:07;;;;;;;38.37;24.77;;;9.60;82.40;;;;;;5064765;28;20056;-78
2021/04/20 00:37:33;;;;;;;38.63;25.67;;;9.50;82.50;;;;;;5076872;28;20467;-78
2021/04/20 00:39:59;;;;;;;37.67;23.87;;;9.50;82.60;;;;;;5059220;28;20120;-78
2021/04/20 00:42:26;;;;;;;39.30;26.00;;;9.40;82.70;;;;;;5077043;28;20056;-78
2021/04/20 00:44:52;;;;;;;40.90;25.67;;;9.40;82.90;;;;;;5059310;28;20090;-78
2021/04/20 00:47:17;;;;;;;37.13;25.00;;;9.30;83.00;;;;;;5054038;28;20029;-78
2021/04/20 00:49:43;;;;;;;35.53;22.67;;;9.40;83.20;;;;;;5031014;28;20040;-78
2021/04/20 00:52:09;;;;;;;36.93;23.50;;;9.30;83.30;;;;;;5051141;28;20036;-78
2021/04/20 00:54:35;;;;;;;37.40;24.23;;;9.40;83.70;;;;;;5076412;28;20036;-78
2021/04/20 00:57:00;;;;;;;36.37;23.27;;;9.30;83.90;;;;;;5075850;28;20036;-78
2021/04/20 00:59:26;;;;;;;38.27;23.20;;;9.20;84.10;;;;;;5076929;28;20380;-78
2021/04/20 01:01:52;;;;;;;34.40;23.33;;;9.10;84.30;;;;;;5076770;28;20043;-78
2021/04/20 01:04:19;;;;;;;39.37;24.17;;;9.10;84.50;;;;;;5076768;28;20345;-78
2021/04/20 01:06:49;;;;;;;36.33;22.77;;;9.20;84.80;;;;;;5058782;28;20032;-78
2021/04/20 01:09:17;;;;;;;36.10;22.37;;;9.10;85.00;;;;;;5076601;28;20021;-78
2021/04/20 01:11:44;;;;;;;41.60;26.00;;;9.10;85.20;;;;;;5075691;28;20070;-78
2021/04/20 01:14:10;;;;;;;36.97;24.43;;;9.00;85.30;;;;;;5076081;28;20020;-78
2021/04/20 01:16:37;;;;;;;37.73;25.23;;;9.00;85.40;;;;;;5076373;28;20108;-78
2021/04/20 01:19:07;;;;;;;40.83;25.70;;;9.00;85.30;;;;;;5076241;28;20036;-73
2021/04/20 01:21:36;;;;;;;39.23;25.83;;;9.00;85.30;;;;;;5076142;28;20446;-78
2021/04/20 01:24:08;;;;;;;36.53;24.67;;;8.90;85.10;;;;;;5057989;28;20027;-77
2021/04/20 01:26:44;;;;;;;39.17;25.17;;;9.00;85.30;;;;;;5075521;28;20052;-77
2021/04/20 01:29:10;;;;;;;39.87;26.53;;;8.90;85.20;;;;;;5057910;28;20020;-77
2021/04/20 01:31:38;;;;;;;40.13;23.80;;;8.90;85.20;;;;;;5074881;28;20020;-78
2021/04/20 01:34:04;;;;;;;38.47;24.80;;;8.90;85.30;;;;;;5058291;28;20021;-78
2021/04/20 01:36:30;;;;;;;42.10;26.50;;;8.80;85.30;;;;;;5053173;28;20029;-78
2021/04/20 01:38:58;;;;;;;38.93;26.53;;;8.80;85.30;;;;;;5071846;28;20052;-78
2021/04/20 01:41:25;;;;;;;40.03;26.03;;;8.80;85.30;;;;;;5075695;28;20055;-77
2021/04/20 01:43:53;;;;;;;39.97;24.43;;;8.70;85.30;;;;;;5055036;28;20036;-78
2021/04/20 01:46:22;;;;;;;39.83;25.43;;;8.70;85.40;;;;;;5071080;28;20025;-78
2021/04/20 01:48:49;;;;;;;43.93;25.40;;;8.70;85.50;;;;;;5057636;28;20032;-78
2021/04/20 01:51:16;;;;;;;40.37;25.90;;;8.70;85.60;;;;;;5064716;28;20508;-77
2021/04/20 01:53:42;;;;;;;41.23;26.17;;;8.70;85.70;;;;;;5068474;28;20082;-77
2021/04/20 01:56:09;;;;;;;45.43;27.10;;;8.60;85.80;;;;;;5057217;28;20020;-77
2021/04/20 01:58:37;;;;;;;39.30;25.57;;;8.60;85.90;;;;;;5057852;28;20025;-77
2021/04/20 02:01:20;;;;;;;42.53;27.50;;;8.60;85.90;;;;;;5075608;28;20103;-77
2021/04/20 02:03:48;;;;;;;41.10;25.57;;;8.60;86.00;;;;;;5075219;28;20025;-77
2021/04/20 02:06:16;;;;;;;45.73;27.57;;;8.60;86.10;;;;;;5057144;28;20396;-77
2021/04/20 02:08:43;;;;;;;42.93;28.07;;;8.40;86.10;;;;;;5075047;28;20024;-77
2021/04/20 02:11:11;;;;;;;42.13;24.50;;;8.50;86.30;;;;;;5057311;28;20025;-77
2021/04/20 02:13:37;;;;;;;43.07;27.30;;;8.50;86.40;;;;;;5056858;28;20024;-72
2021/04/20 02:16:07;;;;;;;40.77;25.80;;;8.50;86.40;;;;;;5075533;28;20020;-73
2021/04/20 02:18:35;;;;;;;44.53;27.07;;;8.60;86.50;;;;;;5057102;28;20503;-72
2021/04/20 02:21:02;;;;;;;43.43;26.67;;;8.50;86.50;;;;;;5056818;28;20021;-73
2021/04/20 02:23:28;;;;;;;43.23;27.50;;;8.40;86.60;;;;;;5056969;28;20056;-72
2021/04/20 02:25:57;;;;;;;43.63;27.27;;;8.40;86.60;;;;;;5056059;28;20072;-72
2021/04/20 02:28:22;;;;;;;41.63;26.73;;;8.30;86.70;;;;;;5056766;28;20047;-73
2021/04/20 02:30:49;;;;;;;45.17;26.73;;;8.40;86.80;;;;;;5057110;28;20020;-72
2021/04/20 02:33:15;;;;;;;45.77;28.20;;;8.30;86.80;;;;;;5040885;28;20021;-72
2021/04/20 02:35:40;;;;;;;46.43;28.17;;;8.30;86.90;;;;;;5074955;28;20036;-72
2021/04/20 02:38:07;;;;;;;45.23;27.63;;;8.30;87.00;;;;;;5040284;28;20029;-72
2021/04/20 02:40:35;;;;;;;44.60;26.60;;;8.30;87.10;;;;;;5074544;28;20387;-72
2021/04/20 02:43:01;;;;;;;40.13;24.83;;;8.30;87.10;;;;;;5056479;28;20035;-72
2021/04/20 02:45:28;;;;;;;39.50;25.67;;;8.20;87.20;;;;;;5057065;28;20029;-72
2021/04/20 02:47:55;;;;;;;44.50;25.73;;;8.20;87.20;;;;;;5075068;28;20052;-72
2021/04/20 02:50:27;;;;;;;44.40;27.03;;;8.20;87.30;;;;;;5056385;28;20021;-72
2021/04/20 02:52:55;;;;;;;43.70;26.53;;;8.20;87.40;;;;;;5056458;28;20020;-72
2021/04/20 02:55:22;;;;;;;42.93;24.43;;;8.20;87.50;;;;;;5074414;28;20020;-73
2021/04/20 02:57:54;;;;;;;40.33;26.40;;;8.10;87.60;;;;;;5056330;28;20040;-77
2021/04/20 03:00:23;;;;;;;42.67;26.20;;;8.10;87.60;;;;;;5056252;28;20016;-77
2021/04/20 03:02:54;;;;;;;41.60;25.17;;;8.10;87.80;;;;;;5074089;28;20484;-77
2021/04/20 03:05:21;;;;;;;40.33;24.40;;;8.10;87.80;;;;;;5074196;28;20049;-77
2021/04/20 03:07:48;;;;;;;43.60;27.30;;;8.10;88.00;;;;;;5073100;28;20031;-76
2021/04/20 03:10:15;;;;;;;42.87;25.57;;;8.10;88.00;;;;;;5040007;28;20021;-77
2021/04/20 03:12:42;;;;;;;40.93;25.10;;;8.10;88.10;;;;;;5036130;28;20079;-77
2021/04/20 03:15:10;;;;;;;45.30;26.97;;;8.00;88.10;;;;;;5042495;28;20048;-76
2021/04/20 03:17:38;;;;;;;44.63;26.73;;;7.90;88.00;;;;;;5054867;28;20020;-77
2021/04/20 03:20:06;;;;;;;41.93;26.97;;;8.00;88.20;;;;;;5068394;28;20124;-71
2021/04/20 03:22:33;;;;;;;43.67;27.40;;;7.90;88.30;;;;;;5035861;28;20112;-71
2021/04/20 03:25:04;;;;;;;45.87;28.87;;;7.90;88.30;;;;;;5035750;28;20029;-76
2021/04/20 03:27:31;;;;;;;42.60;26.70;;;7.90;88.60;;;;;;5053775;28;20099;-77
2021/04/20 03:29:57;;;;;;;48.27;30.23;;;7.90;88.50;;;;;;5053609;28;20424;-79
2021/04/20 03:32:22;;;;;;;50.03;29.53;;;7.90;88.60;;;;;;5035561;28;20040;-77
2021/04/20 03:35:13;;;;;;;49.07;28.87;;;7.80;88.60;;;;;;5053871;28;20557;-76
2021/04/20 03:38:01;;;;;;;47.13;29.17;;;7.80;88.80;;;;;;5053621;28;20033;-76
2021/04/20 03:40:28;;;;;;;47.43;28.60;;;7.80;89.00;;;;;;5053608;28;20564;-77
2021/04/20 03:42:57;;;;;;;51.53;30.67;;;7.80;89.00;;;;;;5035145;28;20429;-77
2021/04/20 03:45:27;;;;;;;49.80;29.67;;;7.70;89.10;;;;;;5056812;28;20488;-77
2021/04/20 03:48:27;;;;;;;50.57;30.17;;;7.70;89.90;;;;;;5052032;28;20025;-76
2021/04/20 03:51:00;;;;;;;51.33;29.50;;;7.70;89.50;;;;;;5052999;28;20025;-77
2021/04/20 03:53:27;;;;;;;51.77;29.70;;;7.70;89.60;;;;;;5049368;28;20381;-77
2021/04/20 03:55:54;;;;;;;46.90;29.43;;;7.70;89.70;;;;;;5051146;28;20128;-77
2021/04/20 03:58:22;;;;;;;45.87;28.23;;;7.70;89.80;;;;;;5034555;28;20032;-77
2021/04/20 04:00:54;;;;;;;52.47;30.63;;;7.70;90.20;;;;;;5058301;28;20025;-76
2021/04/20 04:03:25;;;;;;;52.73;30.47;;;7.70;90.00;;;;;;5072931;28;20029;-77
2021/04/20 04:05:51;;;;;;;49.70;29.17;;;7.70;90.00;;;;;;5052187;28;20036;-76
2021/04/20 04:08:18;;;;;;;47.97;28.63;;;7.70;90.10;;;;;;5052399;28;20032;-76
2021/04/20 04:10:47;;;;;;;54.37;30.47;;;7.70;90.10;;;;;;5029322;28;20376;-77
2021/04/20 04:13:16;;;;;;;47.43;28.63;;;7.60;90.10;;;;;;5063478;28;20052;-76
2021/04/20 04:15:42;;;;;;;48.40;29.57;;;7.60;90.10;;;;;;5052114;28;20036;-72
2021/04/20 04:18:13;;;;;;;49.90;28.73;;;7.60;90.10;;;;;;5034987;28;20036;-72
2021/04/20 04:20:39;;;;;;;45.50;28.00;;;7.50;90.10;;;;;;5060777;28;20550;-72
2021/04/20 04:23:14;;;;;;;46.97;27.73;;;7.60;90.10;;;;;;5055186;28;20064;-72
2021/04/20 04:25:47;;;;;;;47.47;27.37;;;7.50;90.10;;;;;;5073152;28;20478;-72
2021/04/20 04:28:14;;;;;;;48.55;28.38;;;7.50;90.40;;;;;;5054885;28;20025;-73
2021/04/20 04:30:40;;;;;;;49.07;28.03;;;7.40;90.10;;;;;;5073225;28;20055;-72
2021/04/20 04:33:06;;;;;;;47.60;27.87;;;7.40;90.20;;;;;;5054318;28;20025;-77
2021/04/20 04:35:35;;;;;;;48.30;27.43;;;7.40;90.20;;;;;;5053420;28;20020;-77
2021/04/20 04:38:01;;;;;;;46.90;28.03;;;7.40;90.30;;;;;;5050395;28;20032;-77
2021/04/20 04:40:27;;;;;;;48.23;28.43;;;7.40;90.30;;;;;;5052698;28;20390;-78
2021/04/20 04:42:53;;;;;;;48.17;26.97;;;7.40;90.30;;;;;;5053944;28;20036;-77
2021/04/20 04:45:20;;;;;;;50.07;27.17;;;7.30;90.30;;;;;;5052975;28;20033;-77
2021/04/20 04:47:46;;;;;;;43.20;25.63;;;7.30;90.30;;;;;;5039667;28;20044;-77
2021/04/20 04:50:12;;;;;;;48.40;25.53;;;7.20;90.30;;;;;;5052950;28;20381;-77
2021/04/20 04:52:40;;;;;;;43.77;25.63;;;7.30;90.30;;;;;;5053854;28;20043;-77
2021/04/20 04:55:07;;;;;;;41.70;25.20;;;7.30;90.30;;;;;;5052651;28;20108;-76
2021/04/20 04:57:34;;;;;;;45.60;26.10;;;7.20;90.30;;;;;;5071778;28;20056;-78
2021/04/20 05:00:05;;;;;;;43.63;25.20;;;7.20;90.30;;;;;;5054411;28;20597;-77
2021/04/20 05:02:31;;;;;;;48.23;25.80;;;7.20;90.40;;;;;;5072580;28;20029;-77
2021/04/20 05:05:03;;;;;;;46.53;25.53;;;7.20;90.40;;;;;;5053860;28;20051;-78
2021/04/20 05:07:29;;;;;;;45.83;26.00;;;7.20;90.40;;;;;;5056085;28;20033;-77
2021/04/20 05:10:00;;;;;;;45.20;25.43;;;7.20;90.50;;;;;;5065217;28;20119;-77
2021/04/20 05:12:26;;;;;;;45.37;25.80;;;7.20;90.50;;;;;;5075907;28;20478;-77
2021/04/20 05:14:52;;;;;;;44.83;25.63;;;7.20;90.50;;;;;;5054227;28;20033;-77
2021/04/20 05:17:20;;;;;;;44.37;26.10;;;7.20;90.50;;;;;;5055558;28;20033;-78
2021/04/20 05:19:47;;;;;;;49.17;26.47;;;7.20;90.60;;;;;;5073234;28;20033;-77
2021/04/20 05:22:12;;;;;;;43.33;24.80;;;7.20;90.60;;;;;;5076782;28;20037;-77
2021/04/20 05:24:39;;;;;;;49.30;25.93;;;7.30;90.60;;;;;;5055655;28;20082;-77
2021/04/20 05:27:06;;;;;;;49.83;27.47;;;7.30;90.60;;;;;;5068848;28;20127;-77
2021/04/20 05:29:35;;;;;;;47.67;26.33;;;7.30;90.80;;;;;;5069551;28;20059;-77
2021/04/20 05:32:01;;;;;;;47.43;26.83;;;7.30;90.70;;;;;;5078433;28;20042;-77
2021/04/20 05:34:27;;;;;;;50.00;27.20;;;7.30;90.70;;;;;;5045070;28;20032;-77
2021/04/20 05:36:53;;;;;;;50.23;28.10;;;7.30;90.70;;;;;;5080018;28;20342;-76
2021/04/20 05:39:19;;;;;;;51.13;28.07;;;7.30;90.70;;;;;;5041142;28;20032;-77
2021/04/20 05:41:45;;;;;;;48.37;26.93;;;7.30;90.80;;;;;;5075347;28;20037;-77
2021/04/20 05:44:13;;;;;;;49.30;27.33;;;7.40;90.80;;;;;;5049434;28;20033;-77
2021/04/20 05:46:42;;;;;;;52.97;28.87;;;7.30;90.80;;;;;;5086231;28;20028;-77
2021/04/20 05:49:08;;;;;;;52.43;28.50;;;7.40;90.90;;;;;;5057644;28;20044;-78
2021/04/20 05:51:35;;;;;;;47.67;28.60;;;7.40;90.90;;;;;;5078437;28;20032;-77
2021/04/20 05:54:01;;;;;;;51.87;28.83;;;7.50;91.00;;;;;;5074431;28;20060;-77
2021/04/20 05:56:27;;;;;;;48.80;28.53;;;7.60;91.00;;;;;;5054321;28;20127;-77
2021/04/20 05:58:55;;;;;;;48.87;29.73;;;7.60;91.00;;;;;;5026813;28;20043;-77
2021/04/20 06:01:23;;;;;;;50.97;30.50;;;7.60;91.00;;;;;;5057728;28;20454;-77
2021/04/20 06:03:49;;;;;;;50.67;30.07;;;7.70;91.00;;;;;;5064998;28;20050;-77
2021/04/20 06:06:18;;;;;;;51.00;30.27;;;7.70;91.10;;;;;;5069050;28;20060;-77
2021/04/20 06:08:46;;;;;;;51.43;30.93;;;7.80;91.10;;;;;;5061234;28;20024;-78
2021/04/20 06:11:13;;;;;;;50.10;30.87;;;7.80;91.20;;;;;;5056061;28;20671;-77
2021/04/20 06:13:39;;;;;;;53.17;31.33;;;8.00;91.20;;;;;;5076386;28;20021;-78
2021/04/20 06:16:06;;;;;;;53.63;31.73;;;8.00;91.30;;;;;;5050367;28;20399;-78
2021/04/20 06:18:32;;;;;;;58.87;32.90;;;8.00;91.30;;;;;;5057421;28;20410;-77
2021/04/20 06:21:00;;;;;;;52.60;33.03;;;8.00;91.40;;;;;;5094959;28;20031;-77
2021/04/20 06:23:27;;;;;;;56.60;33.97;;;8.20;91.40;;;;;;5095664;28;20573;-78
2021/04/20 06:26:00;;;;;;;54.57;34.00;;;8.20;91.40;;;;;;5094865;28;20395;-77
2021/04/20 06:28:26;;;;;;;53.33;32.97;;;8.30;91.50;;;;;;5094823;28;20416;-77
2021/04/20 06:31:00;;;;;;;54.37;34.00;;;8.30;91.40;;;;;;5060592;28;20036;-77
2021/04/20 06:33:27;;;;;;;54.70;34.35;;;8.40;91.50;;;;;;5093083;28;20024;-77
2021/04/20 06:35:55;;;;;;;54.63;34.20;;;8.50;91.50;;;;;;5040020;28;20040;-77
2021/04/20 06:38:22;;;;;;;57.03;36.53;;;8.60;91.50;;;;;;5074298;28;20028;-77
2021/04/20 06:40:52;;;;;;;57.40;35.20;;;8.70;91.50;;;;;;5074677;28;20060;-77
2021/04/20 06:43:26;;;;;;;55.80;35.33;;;8.80;91.50;;;;;;5075059;28;20041;-77
2021/04/20 06:46:01;;;;;;;56.40;35.08;;;8.80;91.50;;;;;;5079038;28;20479;-77
2021/04/20 06:48:49;;;;;;;57.00;36.77;;;8.90;91.50;;;;;;5075546;28;20013;-77
2021/04/20 06:51:32;;;;;;;56.67;36.50;;;9.00;91.40;;;;;;5090371;28;20103;-77
2021/04/20 06:54:25;;;;;;;58.63;36.00;;;9.10;91.40;;;;;;5054815;28;20033;-77
2021/04/20 06:57:03;;;;;;;57.83;36.20;;;9.20;91.40;;;;;;5062462;28;20047;-77
2021/04/20 07:00:01;;;;;;;56.60;37.93;;;9.30;91.30;;;;;;5087017;28;20103;-77
2021/04/20 07:02:42;;;;;;;61.97;36.50;;;9.40;91.30;;;;;;5074295;28;20028;-77
2021/04/20 07:05:10;;;;;;;57.17;36.30;;;9.50;91.20;;;;;;5071547;28;20017;-77
2021/04/20 07:08:04;;;;;;;54.07;35.03;;;9.50;91.10;;;;;;5073874;28;20346;-77
2021/04/20 07:10:33;;;;;;;60.13;38.63;;;9.60;91.30;;;;;;5055927;28;20027;-77
2021/04/20 07:13:02;;;;;;;55.80;36.30;;;9.70;91.00;;;;;;5073946;28;20020;-77
2021/04/20 07:15:30;;;;;;;59.73;37.33;;;9.70;90.90;;;;;;5067035;28;20033;-77
2021/04/20 07:18:09;;;;;;;54.40;35.60;;;9.90;90.90;;;;;;5069466;28;20123;-77
2021/04/20 07:20:58;;;;;;;57.27;36.70;;;9.90;90.80;;;;;;5073531;28;20060;-77
2021/04/20 07:23:31;;;;;;;59.90;38.67;;;10.00;90.80;;;;;;5073606;28;20023;-77
2021/04/20 07:26:16;;;;;;;53.37;35.27;;;10.10;90.70;;;;;;5074038;28;20515;-77
2021/04/20 07:29:00;;;;;;;53.27;35.27;;;10.20;90.60;;;;;;5071207;28;20031;-77
2021/04/20 07:31:58;;;;;;;53.38;35.00;;;10.30;90.50;;;;;;5053145;28;20522;-77
2021/04/20 07:34:34;;;;;;;48.30;33.20;;;10.40;90.40;;;;;;5062850;28;20024;-76
2021/04/20 07:37:12;;;;;;;52.67;34.10;;;10.40;90.30;;;;;;5055713;28;20029;-76
2021/04/20 07:40:22;;;;;;;51.20;34.83;;;10.60;90.20;;;;;;5067568;28;20051;-76
2021/04/20 07:43:26;;;;;;;47.60;33.00;;;10.60;90.10;;;;;;5011545;28;20115;-79
2021/04/20 07:45:59;;;;;;;50.30;32.33;;;10.70;90.00;;;;;;5073588;28;20020;-76
2021/04/20 07:48:34;;;;;;;43.67;30.77;;;10.80;89.80;;;;;;5073624;28;20032;-77
2021/04/20 07:51:07;;;;;;;46.47;31.67;;;10.90;89.60;;;;;;5067779;28;20099;-76
2021/04/20 07:54:00;;;;;;;44.07;30.07;;;11.00;89.30;;;;;;5058053;28;20349;-77
2021/04/20 07:56:46;;;;;;;43.88;28.65;;;11.10;88.90;;;;;;5054828;28;20055;-71
2021/04/20 07:59:22;;;;;;;41.73;27.77;;;11.10;88.40;;;;;;5077003;28;20028;-71
2021/04/20 08:01:53;;;;;;;42.60;29.02;;;11.20;88.60;;;;;;5076490;28;20440;-71
2021/04/20 08:05:04;;;;;;;41.25;27.38;;;11.30;87.60;;;;;;5075463;28;20102;-71
2021/04/20 08:07:40;;;;;;;42.73;28.13;;;11.40;87.20;;;;;;4995449;28;20518;-72
2021/04/20 08:10:12;;;;;;;38.78;26.40;;;11.50;86.50;;;;;;4975768;28;20045;-71
2021/04/20 08:12:49;;;;;;;39.53;27.33;;;11.60;86.00;;;;;;5021600;28;20025;-72
2021/04/20 08:15:23;;;;;;;36.95;25.83;;;11.70;85.50;;;;;;5072932;28;20024;-71
2021/04/20 08:18:12;;;;;;;37.90;26.00;;;11.70;84.90;;;;;;5073067;28;20467;-71
2021/04/20 08:20:41;;;;;;;37.28;24.95;;;11.90;84.70;;;;;;5072969;28;20115;-71
2021/04/20 08:23:08;;;;;;;36.47;24.58;;;11.90;84.20;;;;;;5054246;28;20107;-71
2021/04/20 08:25:41;;;;;;;36.42;24.02;;;12.00;83.80;;;;;;5075115;28;20032;-72
2021/04/20 08:28:12;;;;;;;34.63;23.02;;;12.10;83.30;;;;;;5072894;28;20017;-72
2021/04/20 08:31:07;;;;;;;31.52;20.98;;;12.20;82.90;;;;;;5073006;28;20035;-72
2021/04/20 08:33:38;;;;;;;33.15;20.65;;;12.30;82.30;;;;;;5065602;28;20037;-73
2021/04/20 08:36:27;;;;;;;32.03;21.20;;;12.40;81.80;;;;;;5074215;28;20406;-72
2021/04/20 08:39:03;;;;;;;28.98;19.90;;;12.50;81.20;;;;;;5056583;28;20407;-73
2021/04/20 08:41:49;;;;;;;29.75;19.50;;;12.70;80.90;;;;;;5074782;28;20031;-73
2021/04/20 08:44:37;;;;;;;27.08;18.27;;;12.70;80.40;;;;;;5076701;28;20028;-71
2021/04/20 08:47:11;;;;;;;25.98;17.35;;;12.90;79.90;;;;;;5076212;28;20107;-72
2021/04/20 08:49:40;;;;;;;;;;;13.00;79.20;;;;;;5058949;28;20028;-72
2021/04/20 08:52:26;;;;;;;22.38;15.65;;;13.10;78.90;;;;;;5076864;28;20325;-72
2021/04/20 08:55:15;;;;;;;19.48;13.88;;;13.20;78.50;;;;;;5058294;28;20040;-73
2021/04/20 08:58:05;;;;;;;24.17;15.93;;;13.30;77.50;;;;;;5075762;28;20430;-70
2021/04/20 09:00:39;;;;;;;22.05;15.80;;;13.40;76.40;;;;;;5093691;28;20098;-72
2021/04/20 09:03:35;;;;;;;23.98;15.85;;;13.60;76.20;;;;;;5075729;28;20017;-72
2021/04/20 09:06:09;;;;;;;23.27;14.63;;;13.70;75.20;;;;;;5053791;28;20197;-73
2021/04/20 09:08:42;;;;;;;21.38;15.05;;;13.80;74.90;;;;;;5076812;28;20027;-73
2021/04/20 09:11:31;;;;;;;21.10;15.52;;;14.00;74.00;;;;;;5078636;28;20028;-72
2021/04/20 09:14:02;;;;;;;20.15;14.02;;;14.10;72.90;;;;;;5076176;28;20020;-72
2021/04/20 09:16:45;;;;;;;20.73;13.73;;;14.20;72.80;;;;;;5096212;28;20352;-73
2021/04/20 09:19:15;;;;;;;24.55;15.73;;;14.40;72.00;;;;;;5095849;28;20435;-72
2021/04/20 09:22:17;;;;;;;23.30;15.13;;;14.50;70.90;;;;;;5096244;28;20086;-72
2021/04/20 09:24:51;;;;;;;22.67;14.75;;;14.60;70.50;;;;;;5057888;28;20130;-73
2021/04/20 09:27:45;;;;;;;25.08;16.95;;;14.80;70.00;;;;;;5070062;28;20090;-73
2021/04/20 09:30:16;;;;;;;24.95;17.00;;;14.90;68.00;;;;;;5050571;28;20032;-72
2021/04/20 09:32:59;;;;;;;21.75;15.80;;;15.00;66.80;;;;;;5075857;28;20024;-72
2021/04/20 09:35:26;;;;;;;22.48;15.38;;;15.10;67.30;;;;;;5075904;28;20024;-72
2021/04/20 09:37:53;;;;;;;21.30;15.27;;;15.30;67.30;;;;;;5075707;28;20039;-72
2021/04/20 09:40:21;;;;;;;23.65;17.50;;;15.30;66.90;;;;;;5057986;28;20021;-77
2021/04/20 09:43:09;;;;;;;19.67;14.70;;;15.40;66.10;;;;;;5076033;28;20020;-77
2021/04/20 09:45:40;;;;;;;21.90;14.63;;;15.60;66.30;;;;;;5057859;28;20028;-77
2021/04/20 09:48:36;;;;;;;21.50;14.68;;;15.70;65.50;;;;;;5057499;28;20044;-77
2021/04/20 09:51:14;;;;;;;21.42;14.85;;;15.90;64.10;;;;;;5088562;28;20081;-77
2021/04/20 09:54:00;;;;;;;18.52;13.73;;;15.90;64.10;;;;;;5076759;28;20028;-73
2021/04/20 09:56:42;;;;;;;18.27;13.35;;;16.10;63.50;;;;;;5056866;28;20487;-73
2021/04/20 09:59:15;;;;;;;20.75;14.43;;;16.20;62.90;;;;;;5062687;28;20464;-73
2021/04/20 10:01:55;;;;;;;17.98;13.18;;;16.30;62.10;;;;;;5079445;28;20070;-73
2021/04/20 10:04:27;;;;;;;16.52;12.60;;;16.40;61.90;;;;;;5092964;28;20086;-77
2021/04/20 10:07:30;;;;;;;16.85;11.88;;;16.50;61.70;;;;;;5062665;28;20032;-77
2021/04/20 10:10:22;;;;;;;16.33;11.70;;;16.70;61.10;;;;;;5074952;28;20039;-78
2021/04/20 10:13:03;;;;;;;12.70;9.60;;;17.00;60.30;;;;;;5056720;28;20025;-77
2021/04/20 10:15:39;;;;;;;15.50;10.05;;;17.20;59.20;;;;;;5078772;28;20431;-77
2021/04/20 10:18:19;;;;;;;14.00;10.43;;;17.40;58.40;;;;;;5056827;28;20028;-77
2021/04/20 10:21:03;;;;;;;13.15;9.75;;;17.80;57.20;;;;;;5074963;28;20033;-77
2021/04/20 10:23:31;;;;;;;10.80;7.78;;;18.10;56.20;;;;;;5074958;28;20013;-77
2021/04/20 10:26:04;;;;;;;11.25;8.25;;;18.60;54.70;;;;;;5074611;28;20017;-77
2021/04/20 10:28:52;;;;;;;8.32;5.78;;;19.00;54.30;;;;;;5074912;28;20024;-77
2021/04/20 10:31:22;;;;;;;9.73;6.72;;;19.50;52.30;;;;;;5074131;28;20115;-79
2021/04/20 10:33:50;;;;;;;11.32;7.63;;;20.00;52.40;;;;;;5086151;28;20035;-78
2021/04/20 10:36:20;;;;;;;11.60;8.55;;;20.60;52.10;;;;;;5094882;28;20031;-78
2021/04/20 10:38:46;;;;;;;11.48;8.73;;;21.20;51.80;;;;;;5060068;28;20119;-79
2021/04/20 10:41:33;;;;;;;10.38;7.82;;;21.80;50.00;;;;;;5057515;28;20051;-79
2021/04/20 10:44:00;;;;;;;11.68;7.50;;;22.40;48.20;;;;;;5085928;28;20024;-79
2021/04/20 10:46:27;;;;;;;8.95;6.68;;;23.00;46.10;;;;;;5086384;28;20032;-80
2021/04/20 10:48:55;;;;;;;10.50;8.02;;;23.60;45.10;;;;;;5074321;28;20032;-78
2021/04/20 10:51:35;;;;;;;11.63;7.65;;;24.10;43.80;;;;;;5074125;28;20021;-79
2021/04/20 10:54:02;;;;;;;10.80;7.78;;;24.60;42.20;;;;;;5074446;28;20456;-79
2021/04/20 10:56:30;;;;;;;9.52;7.38;;;25.20;41.50;;;;;;5057989;28;20132;-79
2021/04/20 10:58:58;;;;;;;8.13;6.00;;;25.70;41.00;;;;;;5087118;28;20023;-80
2021/04/20 11:01:28;;;;;;;9.18;7.32;;;26.10;40.60;;;;;;5089962;28;20107;-81
2021/04/20 11:03:55;;;;;;;11.32;8.63;;;26.50;39.40;;;;;;5088528;28;20124;-78
2021/04/20 11:06:21;;;;;;;9.93;8.27;;;26.80;37.80;;;;;;5074222;28;20060;-80
2021/04/20 11:08:47;;;;;;;8.90;7.15;;;27.00;37.60;;;;;;5039422;28;20472;-82
2021/04/20 11:11:20;;;;;;;9.30;7.70;;;27.20;36.30;;;;;;5066960;28;20028;-80
2021/04/20 11:13:47;;;;;;;8.50;6.65;;;27.40;35.50;;;;;;5093995;28;20102;-80
2021/04/20 11:16:19;;;;;;;12.52;8.27;;;27.70;36.00;;;;;;5092129;28;20383;-78
2021/04/20 11:18:51;;;;;;;12.23;7.97;;;28.00;34.40;;;;;;5074011;28;20027;-80
2021/04/20 11:21:23;;;;;;;9.60;7.80;;;28.20;34.30;;;;;;5055930;28;20021;-81
2021/04/20 11:24:12;;;;;;;8.35;7.38;;;28.50;34.00;;;;;;5073498;28;20108;-78
2021/04/20 11:26:42;;;;;;;10.88;5.88;;;28.60;33.80;;;;;;5073307;28;20117;-81
2021/04/20 11:29:21;;;;;;;9.43;7.28;;;29.00;34.80;;;;;;5081567;28;20024;-80
2021/04/20 11:31:50;;;;;;;9.75;7.70;;;29.30;33.90;;;;;;5093630;28;20054;-82
2021/04/20 11:34:17;;;;;;;8.88;6.93;;;29.40;33.50;;;;;;5075265;28;20027;-81
2021/04/20 11:36:46;;;;;;;11.00;7.50;;;29.30;33.30;;;;;;5058316;28;20067;-80
2021/04/20 11:39:29;;;;;;;9.38;7.82;;;29.20;33.20;;;;;;5073921;28;20457;-81
2021/04/20 11:41:59;;;;;;;11.10;8.18;;;28.90;32.80;;;;;;5073532;28;20055;-81
2021/04/20 11:44:32;;;;;;;9.88;8.20;;;28.70;32.70;;;;;;5073780;28;20016;-79
2021/04/20 11:46:59;;;;;;;9.15;7.80;;;28.40;32.70;;;;;;5073458;28;20035;-80
2021/04/20 11:49:28;;;;;;;8.52;7.32;;;28.10;32.60;;;;;;5044379;28;20020;-80
2021/04/20 11:51:57;;;;;;;9.82;7.60;;;27.90;32.50;;;;;;5073329;28;20073;-80
2021/04/20 11:54:29;;;;;;;13.27;8.60;;;27.70;32.70;;;;;;5078502;28;20460;-72
2021/04/20 11:57:03;;;;;;;12.02;8.27;;;27.60;32.80;;;;;;5054983;28;20482;-73
2021/04/20 11:59:30;;;;;;;10.13;7.40;;;27.50;32.50;;;;;;5065535;28;20021;-73
2021/04/20 12:01:57;;;;;;;10.93;7.38;;;27.50;32.70;;;;;;5066727;28;20083;-73
2021/04/20 12:04:36;;;;;;;10.20;7.93;;;27.60;32.90;;;;;;5066506;28;20041;-75
2021/04/20 12:07:02;;;;;;;9.85;7.93;;;27.70;32.90;;;;;;5062770;28;20028;-73
2021/04/20 12:09:39;;;;;;;11.40;8.48;;;27.80;32.90;;;;;;5040967;28;20040;-74
2021/04/20 12:12:06;;;;;;;10.23;8.73;;;27.80;32.50;;;;;;5053142;28;20024;-73
2021/04/20 12:14:39;;;;;;;9.70;8.27;;;27.80;32.60;;;;;;5054137;28;20465;-73
2021/04/20 12:17:05;;;;;;;10.25;7.90;;;27.90;32.80;;;;;;5058380;28;20379;-73
2021/04/20 12:19:33;;;;;;;11.90;8.25;;;28.00;32.70;;;;;;5046314;28;20029;-75
2021/04/20 12:22:01;;;;;;;8.98;7.45;;;28.00;33.10;;;;;;5056410;28;20029;-73
2021/04/20 12:24:28;;;;;;;11.18;8.13;;;28.00;32.20;;;;;;5056681;28;20104;-73
2021/04/20 12:27:03;;;;;;;10.65;7.50;;;28.00;32.20;;;;;;5056538;28;20040;-73
2021/04/20 12:29:38;;;;;;;9.48;7.40;;;28.10;32.10;;;;;;5056920;28;20032;-73
2021/04/20 12:32:15;;;;;;;12.43;8.75;;;28.10;31.90;;;;;;5057384;28;20025;-74
2021/04/20 12:34:41;;;;;;;11.32;8.32;;;28.20;31.70;;;;;;5056856;28;20029;-74
2021/04/20 12:37:07;;;;;;;9.93;8.15;;;28.10;31.80;;;;;;5055311;28;20040;-73
2021/04/20 12:39:47;;;;;;;10.07;7.85;;;28.10;32.00;;;;;;5043250;28;20034;-74
2021/04/20 12:42:17;;;;;;;11.38;8.18;;;28.30;32.10;;;;;;5049613;28;20043;-74
2021/04/20 12:44:49;;;;;;;8.68;7.70;;;28.40;32.20;;;;;;5054873;28;20025;-75
2021/04/20 12:47:16;;;;;;;10.70;8.73;;;28.40;32.00;;;;;;5055118;28;20090;-74
2021/04/20 12:49:47;;;;;;;11.93;8.50;;;28.50;31.90;;;;;;5055641;28;20052;-74
2021/04/20 12:52:17;;;;;;;10.35;7.55;;;28.60;31.60;;;;;;5062658;28;20029;-73
2021/04/20 12:54:45;;;;;;;12.00;8.35;;;28.70;31.60;;;;;;5068200;28;20071;-74
2021/04/20 12:57:15;;;;;;;9.20;7.57;;;28.80;31.50;;;;;;5064379;28;20090;-72
2021/04/20 12:59:45;;;;;;;10.43;8.68;;;28.90;31.20;;;;;;5076127;28;20028;-73